Time;durP1;ratioP1;P1;durP2;ratioP2;P2;SDS_P1;SDS_P2;PMS_P1;PMS_P2;Temp;Humidity;BMP_temperature;BMP_pressure;BME280_temperature;BME280_humidity;BME280_pressure;Samples;Min_cycle;Max_cycle;Signal;HPM_P1;HPM_P2
2022/02/05 00:02:03;;;;;;;;;2.25;1.75;;;;;9.96;54.61;101862.56;5042300;28;45367;-67
2022/02/05 00:04:28;;;;;;;;;2.00;2.00;;;;;9.95;54.32;101860.78;5039288;28;46397;-67
2022/02/05 00:06:54;;;;;;;;;4.00;3.00;;;;;9.97;54.05;101867.88;5039087;28;45447;-67
2022/02/05 00:09:41;;;;;;;;;3.00;2.75;;;;;9.94;54.56;101862.56;5041905;28;45304;-67
2022/02/05 00:41:26;;;;;;;;;3.25;1.25;;;;;9.82;54.04;101878.69;5041573;28;45385;-67
2022/02/05 00:43:55;;;;;;;;;2.00;1.00;;;;;9.84;54.16;101882.25;5041369;28;45365;-67
2022/02/05 00:46:22;;;;;;;;;3.00;2.00;;;;;9.83;54.28;101884.00;5040250;28;45606;-67
2022/02/05 00:48:49;;;;;;;;;4.00;3.00;;;;;9.83;54.25;101878.66;5039622;28;46758;-67
2022/02/05 00:51:20;;;;;;;;;2.00;2.00;;;;;9.80;54.50;101864.50;5041671;28;45262;-67
2022/02/05 00:53:49;;;;;;;;;2.00;2.00;;;;;9.83;54.55;101875.13;5041106;28;45709;-67
2022/02/05 00:56:24;;;;;;;;;2.00;2.00;;;;;9.80;54.13;101876.03;5040713;28;46997;-67
2022/02/05 00:58:50;;;;;;;;;3.75;3.75;;;;;9.80;54.33;101877.81;5041246;28;45656;-67
2022/02/05 01:01:15;;;;;;;;;3.00;3.00;;;;;9.76;54.76;101870.78;5041542;28;45509;-67
2022/02/05 01:03:41;;;;;;;;;1.75;1.75;;;;;9.78;54.51;101877.84;5039783;28;45332;-67
2022/02/05 01:06:07;;;;;;;;;6.25;2.75;;;;;9.69;54.83;101869.97;5041144;28;46959;-67
2022/02/05 01:08:35;;;;;;;;;2.00;2.00;;;;;9.76;54.36;101881.44;5039237;28;45376;-67
2022/02/05 01:11:01;;;;;;;;;2.50;2.00;;;;;9.75;54.33;101888.53;5030412;28;45277;-67
2022/02/05 01:13:29;;;;;;;;;1.75;1.75;;;;;9.76;54.58;101889.44;5041120;28;45521;-67
2022/02/05 01:16:10;;;;;;;;;4.00;2.00;;;;;9.77;54.42;101891.19;5041144;28;45449;-67
2022/02/05 01:18:38;;;;;;;;;1.75;1.25;;;;;9.76;54.43;101897.44;5041249;28;45576;-67
2022/02/05 01:23:45;;;;;;;;;3.25;1.75;;;;;9.71;54.89;101889.47;5039342;28;45520;-67
2022/02/05 01:26:27;;;;;;;;;1.25;1.25;;;;;9.77;54.33;101894.75;5038923;28;46165;-67
2022/02/05 01:29:02;;;;;;;;;3.25;1.50;;;;;9.78;54.58;101896.50;5028307;28;45682;-67
2022/02/05 01:31:34;;;;;;;;;2.00;1.50;;;;;9.77;54.84;101907.19;5041068;28;45383;-67
2022/02/05 01:34:13;;;;;;;;;6.25;3.00;;;;;9.77;54.60;101918.75;5040609;28;45395;-66
2022/02/05 01:39:36;;;;;;;;;2.00;1.75;;;;;9.78;54.41;101927.63;5040566;28;45640;-67
2022/02/05 01:50:27;;;;;;;;;6.25;1.75;;;;;9.78;54.55;101924.97;5036381;28;45467;-67
2022/02/05 01:53:16;;;;;;;;;4.50;3.00;;;;;9.74;54.44;101917.88;5040110;28;45724;-67
2022/02/05 01:56:33;;;;;;;;;3.25;1.75;;;;;9.76;55.11;101934.78;5039965;28;45361;-67
2022/02/05 02:09:42;;;;;;;;;2.75;2.75;;;;;9.74;54.67;101928.53;5040001;28;45383;-66
2022/02/05 02:12:15;;;;;;;;;1.00;1.00;;;;;9.71;55.00;101933.94;5040162;28;45209;-66
2022/02/05 02:14:55;;;;;;;;;3.50;1.25;;;;;9.68;54.76;101936.63;5038640;28;45513;-66
2022/02/05 02:20:23;;;;;;;;;3.25;1.50;;;;;9.64;54.72;101933.97;5040062;28;45395;-67
2022/02/05 02:23:08;;;;;;;;;1.00;1.00;;;;;9.66;55.04;101943.75;5040024;28;45490;-66
2022/02/05 02:28:07;;;;;;;;;3.75;1.75;;;;;9.52;54.50;101928.78;5040063;28;45469;-66
2022/02/05 02:30:38;;;;;;;;;2.00;1.00;;;;;9.64;54.79;101947.31;5025928;28;46079;-67
2022/02/05 02:33:14;;;;;;;;;2.50;1.25;;;;;9.67;54.46;101950.84;5039965;28;45498;-66
2022/02/05 02:35:44;;;;;;;;;2.00;1.00;;;;;9.67;54.89;101953.50;5039912;28;45463;-66
2022/02/05 02:38:13;;;;;;;;;2.00;1.50;;;;;9.66;54.41;101952.63;5039660;28;45372;-66
2022/02/05 02:41:00;;;;;;;;;2.00;2.00;;;;;9.60;54.73;101956.22;5039734;28;47148;-67
2022/02/05 02:43:28;;;;;;;;;2.00;2.00;;;;;9.63;54.77;101971.31;5026802;28;45250;-66
2022/02/05 02:45:54;;;;;;;;;4.50;2.00;;;;;9.64;54.52;101959.78;5034095;28;45249;-67
2022/02/05 02:48:19;;;;;;;;;3.00;2.00;;;;;9.63;54.47;101963.31;5036040;28;45245;-67
2022/02/05 02:59:07;;;;;;;;;3.25;2.75;;;;;9.57;54.53;101958.03;5039781;28;45406;-66
2022/02/05 03:01:36;;;;;;;;;2.00;2.00;;;;;9.56;54.46;101964.28;5039110;28;46171;-66
2022/02/05 03:04:01;;;;;;;;;3.00;1.25;;;;;9.55;54.94;101971.38;5039411;28;45675;-66
2022/02/05 03:06:27;;;;;;;;;1.00;1.00;;;;;9.57;54.55;101966.94;5038020;28;45342;-67
2022/02/05 03:08:52;;;;;;;;;2.00;2.00;;;;;9.54;54.98;101960.72;5039377;28;45423;-67
2022/02/05 03:11:19;;;;;;;;;1.00;1.00;;;;;9.52;54.85;101971.44;5039131;28;49865;-67
2022/02/05 03:13:45;;;;;;;;;2.25;1.50;;;;;9.51;54.95;101977.66;5039277;28;45741;-66
2022/02/05 03:16:21;;;;;;;;;2.50;1.75;;;;;9.53;54.93;101980.31;5039291;28;45467;-66
2022/02/05 03:21:14;;;;;;;;;3.25;3.25;;;;;9.48;55.14;101984.78;5038939;28;46850;-66
2022/02/05 03:23:39;;;;;;;;;2.25;1.00;;;;;9.46;54.92;101992.78;5037689;28;48148;-66
2022/02/05 03:26:05;;;;;;;;;3.00;1.25;;;;;9.45;54.93;101994.59;5039147;28;45368;-66
2022/02/05 03:28:33;;;;;;;;;3.75;2.00;;;;;9.43;54.74;101993.69;5039331;28;45395;-66
2022/02/05 03:30:58;;;;;;;;;3.75;2.50;;;;;9.40;55.15;101999.03;5039156;28;46917;-67
2022/02/05 03:33:23;;;;;;;;;3.00;2.25;;;;;9.37;54.79;102001.75;5038660;28;45323;-67
2022/02/05 03:35:49;;;;;;;;;3.00;3.00;;;;;9.39;54.98;102005.28;5039270;28;45444;-66
2022/02/05 03:38:14;;;;;;;;;3.00;2.00;;;;;9.35;55.27;101995.53;5039167;28;45307;-66
2022/02/05 03:40:39;;;;;;;;;2.25;2.25;;;;;9.25;55.36;101984.06;5037419;28;45272;-66
2022/02/05 03:43:05;;;;;;;;;3.50;1.00;;;;;9.33;55.46;101999.97;5038876;28;45304;-67
2022/02/05 03:45:32;;;;;;;;;5.50;1.00;;;;;9.33;55.10;102012.44;5039056;28;45395;-67
2022/02/05 03:47:58;;;;;;;;;2.00;1.25;;;;;9.36;55.20;102025.75;5037401;28;45198;-66
2022/02/05 03:50:23;;;;;;;;;1.75;1.75;;;;;9.36;55.11;102018.63;5030891;28;45229;-66
2022/02/05 03:52:49;;;;;;;;;4.75;3.25;;;;;9.38;54.97;102010.63;5038219;28;45529;-66
2022/02/05 03:55:14;;;;;;;;;5.00;3.00;;;;;9.35;55.35;102005.31;5038921;28;45241;-67
2022/02/05 03:57:39;;;;;;;;;2.50;2.50;;;;;9.28;55.21;101997.34;5038813;28;45377;-66
2022/02/05 04:00:08;;;;;;;;;1.50;1.50;;;;;9.34;54.95;102014.19;5039009;28;46159;-67
2022/02/05 04:02:38;;;;;;;;;2.50;1.50;;;;;9.35;55.28;102023.97;5038621;28;45375;-66
2022/02/05 04:05:04;;;;;;;;;2.00;2.00;;;;;9.34;54.99;102027.50;5039805;28;45269;-66
2022/02/05 04:07:33;;;;;;;;;2.50;1.75;;;;;9.31;55.08;102033.75;5042119;28;45498;-66
2022/02/05 04:10:02;;;;;;;;;1.00;1.00;;;;;9.27;54.79;102008.00;5042239;28;47151;-66
2022/02/05 04:17:55;;;;;;;;;1.50;1.00;;;;;9.32;54.91;102026.63;5041772;28;45203;-66
2022/02/05 04:20:20;;;;;;;;;1.50;1.00;;;;;9.34;55.09;102022.19;5040233;28;46063;-66
2022/02/05 04:22:46;;;;;;;;;3.50;1.50;;;;;9.30;55.27;102023.09;5041546;28;45480;-67
2022/02/05 04:25:12;;;;;;;;;2.00;2.00;;;;;9.26;55.65;102016.91;5041776;28;45321;-66
2022/02/05 04:27:38;;;;;;;;;1.00;1.00;;;;;9.30;55.58;102031.97;5029082;28;45315;-66
2022/02/05 04:30:05;;;;;;;;;2.75;1.00;;;;;9.29;55.60;102040.88;5040661;28;45549;-67
2022/02/05 04:32:30;;;;;;;;;2.00;1.00;;;;;9.26;55.35;102027.56;5041072;28;45197;-66
2022/02/05 04:34:55;;;;;;;;;2.00;1.25;;;;;9.25;55.59;102029.38;5036648;28;45773;-67
2022/02/05 04:37:24;;;;;;;;;3.00;2.00;;;;;9.24;55.66;102024.03;5029149;28;45408;-67
2022/02/05 04:40:01;;;;;;;;;4.75;2.00;;;;;9.22;55.14;102028.47;5039940;28;46992;-67
2022/02/05 04:42:38;;;;;;;;;5.00;3.25;;;;;9.21;55.41;102029.38;5039620;28;45208;-67
2022/02/05 04:55:28;;;;;;;;;4.00;3.00;;;;;8.95;55.11;102022.41;5039844;28;45379;-67
2022/02/05 05:00:54;;;;;;;;;6.75;5.75;;;;;8.95;55.49;102043.72;5039644;28;45463;-66
2022/02/05 05:06:04;;;;;;;;;4.50;3.25;;;;;8.88;55.46;102042.84;5034811;28;45481;-67
2022/02/05 05:08:40;;;;;;;;;5.50;4.25;;;;;8.85;55.59;102036.66;5038264;28;45251;-66
2022/02/05 05:19:28;;;;;;;;;7.00;4.75;;;;;8.71;55.50;102047.38;5039483;28;45746;-67
2022/02/05 05:21:56;;;;;;;;;3.75;2.00;;;;;8.64;55.65;102045.63;5018819;28;47324;-67
2022/02/05 05:24:21;;;;;;;;;3.25;2.25;;;;;8.66;55.72;102060.69;5040106;28;45617;-67
2022/02/05 05:26:47;;;;;;;;;5.00;3.75;;;;;8.64;55.78;102058.94;5040558;28;45376;-67
2022/02/05 05:29:12;;;;;;;;;3.25;3.25;;;;;8.60;55.69;102058.03;5039020;28;45305;-67
2022/02/05 05:31:37;;;;;;;;;3.50;3.50;;;;;8.58;56.01;102062.50;5029314;28;46155;-67
2022/02/05 05:34:03;;;;;;;;;6.75;6.00;;;;;8.53;55.86;102061.63;5039757;28;45465;-67
2022/02/05 05:36:29;;;;;;;;;4.00;3.50;;;;;8.41;55.79;102035.91;5039540;28;45352;-67
2022/02/05 05:39:00;;;;;;;;;8.00;5.75;;;;;8.46;55.88;102054.56;5038852;28;45468;-67
2022/02/05 05:41:26;;;;;;;;;6.75;6.75;;;;;8.44;56.09;102054.56;5037534;28;45729;-67
2022/02/05 05:44:19;;;;;;;;;6.25;6.25;;;;;8.40;55.65;102049.22;5041342;28;45432;-67
2022/02/05 05:46:48;;;;;;;;;9.75;6.00;;;;;8.37;56.12;102046.53;5040301;28;45495;-68
2022/02/05 05:49:17;;;;;;;;;5.25;5.25;;;;;8.24;56.05;102027.09;5032350;28;45360;-67
2022/02/05 05:51:45;;;;;;;;;5.25;4.00;;;;;8.33;56.17;102045.69;5036972;28;46471;-67
2022/02/05 05:54:11;;;;;;;;;4.00;4.00;;;;;8.32;56.16;102057.22;5039680;28;45510;-67
2022/02/05 05:56:37;;;;;;;;;9.00;7.25;;;;;8.27;56.18;102049.25;5040188;28;45440;-67
2022/02/05 05:59:04;;;;;;;;;6.75;5.50;;;;;8.26;56.15;102049.25;5037283;28;45544;-67
2022/02/05 06:01:30;;;;;;;;;7.00;7.00;;;;;8.18;56.27;102035.94;5030085;28;45546;-67
2022/02/05 06:03:56;;;;;;;;;7.00;5.75;;;;;8.21;56.38;102057.22;5040093;28;45235;-67
2022/02/05 06:06:21;;;;;;;;;7.75;6.50;;;;;8.19;56.21;102063.47;5040206;28;45288;-67
2022/02/05 06:08:47;;;;;;;;;8.25;8.25;;;;;8.15;56.46;102062.53;5038598;28;45245;-67
2022/02/05 06:11:12;;;;;;;;;10.75;7.75;;;;;8.15;56.34;102066.13;5039230;28;46870;-67
2022/02/05 06:13:37;;;;;;;;;9.00;8.00;;;;;8.11;56.39;102074.97;5039611;28;45483;-68
2022/02/05 06:16:07;;;;;;;;;8.00;7.25;;;;;8.12;56.46;102081.19;5040082;28;45345;-67
2022/02/05 06:18:33;;;;;;;;;8.00;8.00;;;;;8.04;56.54;102064.34;5037736;28;45839;-67
2022/02/05 06:20:58;;;;;;;;;6.75;4.00;;;;;8.09;56.44;102074.09;5040067;28;45388;-67
2022/02/05 06:23:24;;;;;;;;;8.25;6.00;;;;;8.07;56.61;102078.53;5038658;28;45265;-67
2022/02/05 06:25:49;;;;;;;;;8.00;6.75;;;;;7.96;56.59;102065.22;5038285;28;45321;-67
2022/02/05 06:28:16;;;;;;;;;11.25;8.50;;;;;8.02;56.87;102074.09;5021255;28;45493;-67
2022/02/05 06:30:42;;;;;;;;;8.00;6.00;;;;;8.01;56.71;102094.47;5039640;28;46016;-67
2022/02/05 06:33:08;;;;;;;;;8.00;7.00;;;;;8.00;56.69;102097.13;5038083;28;45264;-67
2022/02/05 06:35:34;;;;;;;;;8.00;6.00;;;;;7.96;57.00;102091.81;5039908;28;45491;-67
2022/02/05 06:38:00;;;;;;;;;6.00;6.00;;;;;7.97;56.81;102092.72;5039677;28;45249;-68
2022/02/05 06:40:26;;;;;;;;;7.25;6.00;;;;;7.96;56.71;102096.25;5039345;28;46094;-68
2022/02/05 06:42:51;;;;;;;;;4.00;4.00;;;;;7.94;57.08;102096.25;5037330;28;45313;-67
2022/02/05 06:45:17;;;;;;;;;6.50;4.00;;;;;7.89;56.76;102086.50;5039366;28;45361;-67
2022/02/05 06:47:42;;;;;;;;;12.50;7.00;;;;;7.87;56.90;102090.91;5039716;28;45304;-67
2022/02/05 06:50:08;;;;;;;;;8.50;6.00;;;;;7.85;56.77;102087.38;5039632;28;45818;-67
2022/02/05 06:52:35;;;;;;;;;8.75;6.25;;;;;7.85;56.92;102104.25;5021187;28;45433;-67
2022/02/05 06:55:01;;;;;;;;;6.50;5.00;;;;;7.87;57.04;102109.53;5039420;28;45308;-67
2022/02/05 06:57:26;;;;;;;;;7.00;4.00;;;;;7.80;57.44;102111.28;5035000;28;45317;-67
2022/02/05 06:59:52;;;;;;;;;5.50;5.50;;;;;7.77;57.14;102117.50;5037867;28;45256;-67
2022/02/05 07:02:17;;;;;;;;;5.50;3.75;;;;;7.84;57.36;102137.00;5037614;28;45404;-68
2022/02/05 07:04:43;;;;;;;;;7.75;6.50;;;;;7.84;57.11;102136.13;5036270;28;45229;-67
2022/02/05 07:07:08;;;;;;;;;4.50;4.50;;;;;7.74;57.30;102130.78;5038952;28;45250;-67
2022/02/05 07:09:34;;;;;;;;;6.50;6.50;;;;;7.79;57.41;102142.31;5039596;28;45980;-67
2022/02/05 07:12:00;;;;;;;;;7.25;3.75;;;;;7.75;57.33;102129.00;5038873;28;45348;-68
2022/02/05 07:14:35;;;;;;;;;6.50;4.50;;;;;7.78;57.45;102140.56;5037543;28;45413;-67
2022/02/05 07:17:08;;;;;;;;;5.25;5.25;;;;;7.79;57.38;102144.09;5031765;28;45475;-67
2022/02/05 07:20:03;;;;;;;;;6.25;5.50;;;;;7.76;57.41;102147.63;5026789;28;46508;-67
2022/02/05 07:22:34;;;;;;;;;6.00;4.00;;;;;7.78;57.72;102160.91;5020712;28;45285;-67
2022/02/05 07:30:08;;;;;;;;;6.00;4.00;;;;;7.71;57.79;102143.19;5032689;28;45594;-67
2022/02/05 07:32:34;;;;;;;;;9.00;6.25;;;;;7.79;58.27;102158.28;5035261;28;45547;-67
2022/02/05 07:35:00;;;;;;;;;5.50;5.50;;;;;7.75;57.63;102145.88;5036631;28;45367;-67
2022/02/05 07:37:25;;;;;;;;;3.25;2.25;;;;;7.77;57.94;102145.88;5036259;28;45389;-67
2022/02/05 07:39:51;;;;;;;;;7.50;6.75;;;;;7.78;57.96;102147.63;5039966;28;45915;-67
2022/02/05 07:42:19;;;;;;;;;6.25;5.00;;;;;7.81;57.98;102158.28;5039805;28;45237;-68
2022/02/05 07:44:48;;;;;;;;;6.50;6.50;;;;;7.79;58.09;102147.63;5043007;28;45249;-67
2022/02/05 07:47:16;;;;;;;;;7.75;7.00;;;;;7.85;58.19;102161.81;5042136;28;45466;-67
2022/02/05 07:49:42;;;;;;;;;6.50;6.00;;;;;7.82;58.08;102164.47;5042206;28;47262;-67
2022/02/05 07:52:10;;;;;;;;;11.75;7.75;;;;;7.86;58.46;102172.47;5040004;28;45327;-67
2022/02/05 07:54:36;;;;;;;;;7.25;6.50;;;;;7.88;58.42;102169.81;5040049;28;45406;-67
2022/02/05 07:57:02;;;;;;;;;7.75;7.00;;;;;7.88;58.37;102169.81;5033427;28;45640;-66
2022/02/05 07:59:27;;;;;;;;;4.50;4.50;;;;;7.86;58.61;102158.28;5019407;28;47293;-67
2022/02/05 08:01:53;;;;;;;;;7.00;6.00;;;;;7.92;58.53;102159.19;5020768;28;45570;-66
2022/02/05 08:04:18;;;;;;;;;7.25;6.00;;;;;7.92;58.61;102169.81;5041665;28;45422;-66
2022/02/05 08:06:45;;;;;;;;;6.50;4.00;;;;;7.95;58.89;102175.16;5033158;28;45448;-66
2022/02/05 08:09:24;;;;;;;;;6.75;3.75;;;;;7.98;58.93;102179.56;5040392;28;45381;-66
2022/02/05 08:14:15;;;;;;;;;3.75;2.75;;;;;8.02;59.02;102170.72;5038014;28;47489;-67
2022/02/05 08:16:51;;;;;;;;;2.75;2.75;;;;;8.09;59.24;102171.63;5042140;28;45467;-67
2022/02/05 08:19:16;;;;;;;;;2.75;2.00;;;;;8.12;59.20;102169.84;5041507;28;46191;-67
2022/02/05 08:21:42;;;;;;;;;4.50;3.00;;;;;8.15;59.32;102167.19;5050831;28;45511;-67
2022/02/05 08:24:08;;;;;;;;;2.00;2.00;;;;;8.13;59.03;102160.06;5044521;28;45647;-67
2022/02/05 08:26:35;;;;;;;;;2.75;1.00;;;;;8.13;59.27;102146.78;5042622;28;45301;-68
2022/02/05 08:29:01;;;;;;;;;2.00;2.00;;;;;8.29;59.17;102153.00;5043187;28;46066;-68
2022/02/05 08:31:26;;;;;;;;;3.00;2.00;;;;;8.33;59.26;102155.63;5043000;28;45567;-67
2022/02/05 08:33:53;;;;;;;;;2.00;1.00;;;;;8.34;59.36;102149.44;5041045;28;45861;-68
2022/02/05 08:36:21;;;;;;;;;3.00;2.00;;;;;8.38;59.32;102147.66;5041455;28;45253;-68
2022/02/05 08:38:51;;;;;;;;;1.25;1.25;;;;;8.41;59.20;102158.31;5041527;28;46589;-68
2022/02/05 08:41:16;;;;;;;;;2.50;1.50;;;;;8.41;59.07;102158.31;5041504;28;45479;-67
2022/02/05 08:43:42;;;;;;;;;1.00;1.00;;;;;8.42;59.34;102157.44;5040911;28;45379;-70
2022/02/05 08:46:08;;;;;;;;;3.25;2.00;;;;;8.41;59.42;102150.31;5039956;28;45390;-70
2022/02/05 08:48:34;;;;;;;;;3.25;2.25;;;;;8.47;59.44;102149.44;5043576;28;45238;-69
2022/02/05 08:50:59;;;;;;;;;5.25;3.25;;;;;8.46;59.18;102150.34;5040549;28;45399;-69
2022/02/05 08:53:25;;;;;;;;;6.50;4.00;;;;;8.50;59.07;102160.09;5043666;28;45304;-70
2022/02/05 08:55:52;;;;;;;;;5.75;4.50;;;;;8.47;59.03;102152.13;5040628;28;45605;-70
2022/02/05 08:58:18;;;;;;;;;6.50;6.00;;;;;8.49;59.27;102163.66;5023217;28;46253;-68
2022/02/05 09:00:49;;;;;;;;;6.50;6.25;;;;;8.48;59.15;102164.53;5038701;28;46020;-68
2022/02/05 09:03:30;;;;;;;;;5.75;3.50;;;;;8.50;59.21;102174.31;5045875;28;45503;-69
2022/02/05 09:05:56;;;;;;;;;7.25;5.75;;;;;8.47;59.39;102174.31;5051937;28;45241;-68
2022/02/05 09:08:26;;;;;;;;;5.50;4.75;;;;;8.45;59.18;102168.09;5039964;28;46010;-67
2022/02/05 09:13:38;;;;;;;;;11.50;7.50;;;;;8.56;59.37;102176.06;5035603;28;45447;-66
2022/02/05 09:16:06;;;;;;;;;6.75;6.75;;;;;8.55;59.55;102173.41;5038044;28;45414;-68
2022/02/05 09:18:32;;;;;;;;;9.00;9.00;;;;;8.56;59.34;102170.75;5037373;28;46119;-68
2022/02/05 09:20:57;;;;;;;;;8.00;8.00;;;;;8.59;59.65;102185.84;5020466;28;45345;-68
2022/02/05 09:23:23;;;;;;;;;8.75;6.50;;;;;8.58;59.52;102179.59;5040972;28;45282;-67
2022/02/05 09:25:48;;;;;;;;;4.75;3.00;;;;;8.64;59.65;102182.28;5038952;28;45451;-68
2022/02/05 09:28:14;;;;;;;;;2.00;2.00;;;;;8.70;59.83;102189.34;5037518;28;45712;-68
2022/02/05 09:30:47;;;;;;;;;3.25;3.00;;;;;8.73;59.92;102184.03;5039195;28;45466;-65
2022/02/05 09:33:13;;;;;;;;;3.75;2.75;;;;;8.78;59.68;102179.56;5039725;28;45389;-65
2022/02/05 09:35:38;;;;;;;;;5.75;3.00;;;;;8.79;59.95;102172.50;5021538;28;45805;-65
2022/02/05 09:38:04;;;;;;;;;1.75;1.75;;;;;8.85;59.65;102176.03;5033575;28;46051;-65
2022/02/05 09:40:29;;;;;;;;;2.00;2.00;;;;;8.86;59.54;102169.81;5039069;28;45423;-66
2022/02/05 09:42:55;;;;;;;;;2.25;2.25;;;;;8.87;59.94;102163.59;5038477;28;45202;-65
2022/02/05 09:45:20;;;;;;;;;0.00;0.00;;;;;8.97;59.64;102180.44;5037862;28;45849;-65
2022/02/05 09:47:46;;;;;;;;;3.00;3.00;;;;;9.01;59.63;102173.31;5040840;28;46755;-65
2022/02/05 09:50:12;;;;;;;;;2.25;0.25;;;;;9.00;59.60;102166.22;5039812;28;45320;-67
2022/02/05 09:52:37;;;;;;;;;3.00;2.00;;;;;9.05;59.57;102173.31;5029176;28;45389;-67
2022/02/05 09:55:03;;;;;;;;;0.75;0.75;;;;;9.12;59.65;102174.19;5037052;28;45436;-68
2022/02/05 09:57:29;;;;;;;;;3.00;2.00;;;;;9.13;59.79;102173.28;5040103;28;45387;-68
2022/02/05 09:59:59;;;;;;;;;3.00;2.25;;;;;9.22;59.58;102191.00;5040319;28;45308;-68
2022/02/05 10:02:29;;;;;;;;;4.00;1.25;;;;;9.26;59.76;102193.66;5039751;28;45344;-68
2022/02/05 10:05:02;;;;;;;;;1.25;1.00;;;;;9.28;59.70;102188.31;5040443;28;45389;-68
2022/02/05 10:07:29;;;;;;;;;2.00;1.25;;;;;9.34;59.71;102192.72;5039777;28;46918;-68
2022/02/05 10:09:56;;;;;;;;;1.50;1.00;;;;;9.41;59.36;102203.38;5035194;28;47123;-68
2022/02/05 10:12:22;;;;;;;;;4.00;1.00;;;;;9.45;59.28;102196.25;5040275;28;45312;-68
2022/02/05 10:14:54;;;;;;;;;4.25;2.00;;;;;9.49;59.61;102183.78;5022365;28;46174;-69
2022/02/05 10:17:20;;;;;;;;;3.00;1.00;;;;;9.52;59.68;102178.44;5039385;28;46158;-68
2022/02/05 10:19:51;;;;;;;;;2.75;2.00;;;;;9.57;59.31;102185.53;5040118;28;45324;-68
2022/02/05 10:22:19;;;;;;;;;1.50;1.00;;;;;9.57;59.42;102195.28;5038835;28;45396;-65
2022/02/05 10:25:00;;;;;;;;;1.25;1.25;;;;;9.64;59.29;102202.38;5037864;28;45317;-67
2022/02/05 10:27:30;;;;;;;;;2.75;1.75;;;;;9.67;59.21;102199.69;5034541;28;47167;-69
2022/02/05 10:30:11;;;;;;;;;1.00;1.00;;;;;9.72;59.00;102207.66;5039840;28;45314;-63
2022/02/05 10:32:46;;;;;;;;;2.00;1.00;;;;;9.72;59.32;102213.91;5040032;28;45406;-68
2022/02/05 10:37:50;;;;;;;;;2.00;2.00;;;;;9.80;59.26;102219.19;5038806;28;45323;-66
2022/02/05 10:40:22;;;;;;;;;3.25;2.00;;;;;9.83;59.04;102211.16;5029554;28;45337;-63
2022/02/05 10:43:03;;;;;;;;;2.00;2.00;;;;;9.87;58.70;102212.91;5039639;28;45480;-70
2022/02/05 10:45:49;;;;;;;;;4.00;2.00;;;;;9.93;58.77;102214.66;5039980;28;45296;-68
2022/02/05 10:48:19;;;;;;;;;3.00;2.00;;;;;9.96;58.47;102222.66;5039380;28;46114;-66
2022/02/05 10:50:46;;;;;;;;;2.00;2.00;;;;;9.99;58.77;102230.66;5036662;28;45771;-69
2022/02/05 10:53:48;;;;;;;;;3.00;2.00;;;;;10.02;58.26;102223.50;5039544;28;45352;-68
2022/02/05 10:56:32;;;;;;;;;2.25;2.25;;;;;10.05;58.51;102227.91;5030509;28;45490;-69
2022/02/05 11:07:17;;;;;;;;;3.00;2.50;;;;;10.22;57.96;102235.81;5026123;28;45458;-66
2022/02/05 11:09:46;;;;;;;;;2.00;2.00;;;;;10.26;58.22;102231.34;5036729;28;46238;-68
2022/02/05 11:20:10;;;;;;;;;3.00;2.00;;;;;10.37;57.92;102219.72;5030495;28;45925;-71
2022/02/05 11:22:39;;;;;;;;;2.00;2.00;;;;;10.43;57.99;102221.44;5042696;28;45312;-71
2022/02/05 11:25:07;;;;;;;;;1.00;1.00;;;;;10.45;57.95;102225.00;5041300;28;45296;-70
2022/02/05 11:27:32;;;;;;;;;2.75;2.50;;;;;10.45;57.93;102208.97;5042346;28;45317;-76
2022/02/05 11:30:27;;;;;;;;;3.00;1.75;;;;;10.54;57.62;102214.25;5041148;28;46166;-79
2022/02/05 11:32:55;;;;;;;;;1.00;1.00;;;;;10.57;57.71;102213.31;5013581;28;45414;-78
2022/02/05 11:35:33;;;;;;;;;2.75;1.00;;;;;10.55;57.57;102201.78;5033014;28;45396;-77
2022/02/05 11:38:00;;;;;;;;;1.75;1.00;;;;;10.64;57.77;102208.81;5029986;28;45340;-77
2022/02/05 11:40:45;;;;;;;;;0.00;0.00;;;;;10.68;57.62;102195.41;5019348;28;48277;-67
2022/02/05 11:43:18;;;;;;;;;1.00;1.00;;;;;10.70;57.31;102206.97;5023719;28;45393;-70
2022/02/05 11:45:43;;;;;;;;;3.00;1.00;;;;;10.70;57.23;102193.59;5040739;28;45530;-70
2022/02/05 11:48:40;;;;;;;;;3.50;0.00;;;;;10.76;56.80;102211.38;5042540;28;45608;-70
2022/02/05 11:51:11;;;;;;;;;1.00;0.00;;;;;10.77;56.41;102199.78;5024342;28;48237;-70
2022/02/05 11:53:55;;;;;;;;;0.50;0.50;;;;;10.80;56.68;102198.88;5041983;28;45572;-70
2022/02/05 11:56:21;;;;;;;;;1.00;1.00;;;;;10.82;56.71;102191.72;5042209;28;45390;-70
2022/02/05 11:58:59;;;;;;;;;0.75;0.75;;;;;10.85;56.70;102183.69;5040990;28;45242;-70
2022/02/05 12:01:38;;;;;;;;;4.25;1.00;;;;;10.84;56.61;102180.13;5042242;28;45444;-70
2022/02/05 12:04:10;;;;;;;;;1.00;1.00;;;;;10.86;56.49;102180.09;5038767;28;45611;-69
2022/02/05 12:06:48;;;;;;;;;1.00;1.00;;;;;10.93;56.42;102189.84;5040961;28;45629;-69
2022/02/05 12:09:31;;;;;;;;;3.00;1.00;;;;;10.98;56.57;102184.44;5040334;28;45491;-70
2022/02/05 12:12:27;;;;;;;;;0.25;0.25;;;;;11.01;56.36;102184.38;5031637;28;45362;-70
2022/02/05 12:15:18;;;;;;;;;1.75;1.00;;;;;11.04;55.45;102179.00;5032492;28;45459;-70
2022/02/05 12:20:59;;;;;;;;;1.50;1.00;;;;;11.08;55.68;102162.94;5040531;28;45473;-70
2022/02/05 12:23:52;;;;;;;;;1.00;1.00;;;;;11.10;55.49;102166.47;5041803;28;45420;-70
2022/02/05 12:26:31;;;;;;;;;1.00;0.00;;;;;11.12;55.55;102159.31;5028273;28;45638;-70
2022/02/05 12:29:00;;;;;;;;;1.00;1.00;;;;;11.11;55.20;102157.56;5032386;28;45470;-70
2022/02/05 12:31:26;;;;;;;;;1.00;1.00;;;;;11.18;55.12;102166.38;5034693;28;48005;-69
2022/02/05 12:33:54;;;;;;;;;1.50;1.00;;;;;11.21;55.27;102165.44;5038736;28;46226;-71
2022/02/05 12:36:38;;;;;;;;;1.75;1.00;;;;;11.25;54.83;102173.41;5041997;28;45349;-71
2022/02/05 12:39:07;;;;;;;;;1.00;1.00;;;;;11.21;54.87;102150.31;5039671;28;45288;-71
2022/02/05 12:41:33;;;;;;;;;1.00;1.00;;;;;11.28;54.40;102162.69;5041394;28;45536;-71
2022/02/05 12:44:07;;;;;;;;;5.50;0.00;;;;;11.25;54.02;102149.34;5041998;28;45365;-71
2022/02/05 12:46:38;;;;;;;;;0.50;0.50;;;;;11.31;53.41;102156.44;5041614;28;45316;-71
2022/02/05 12:49:14;;;;;;;;;3.00;0.00;;;;;11.30;54.05;102144.84;5022250;28;45330;-71
2022/02/05 12:51:44;;;;;;;;;1.00;1.00;;;;;11.31;53.98;102135.06;5039613;28;45569;-71
2022/02/05 12:54:14;;;;;;;;;0.00;0.00;;;;;11.29;53.29;102137.75;5041787;28;46139;-71
2022/02/05 12:56:41;;;;;;;;;2.00;1.00;;;;;11.37;53.54;102148.31;5038939;28;46896;-71
2022/02/05 12:59:12;;;;;;;;;1.00;1.00;;;;;11.37;53.71;102142.09;5038314;28;45344;-71
2022/02/05 13:02:07;;;;;;;;;1.75;1.75;;;;;11.41;53.23;102149.16;5040346;28;45320;-71
2022/02/05 13:04:41;;;;;;;;;0.75;0.75;;;;;11.42;53.13;102156.28;5039742;28;47125;-71
2022/02/05 13:07:13;;;;;;;;;1.25;0.25;;;;;11.44;53.34;102152.69;5034073;28;45528;-71
2022/02/05 13:09:45;;;;;;;;;0.75;0.00;;;;;11.46;52.87;102160.66;5041328;28;45351;-71
2022/02/05 13:12:11;;;;;;;;;1.75;1.00;;;;;11.41;52.96;102131.34;5039662;28;47345;-71
2022/02/05 13:15:00;;;;;;;;;1.00;1.00;;;;;11.46;52.50;102145.53;5029651;28;46249;-71
2022/02/05 13:18:10;;;;;;;;;0.00;0.00;;;;;11.50;52.23;102141.91;5037549;28;45529;-71
2022/02/05 13:28:41;;;;;;;;;0.00;0.00;;;;;11.60;51.11;102142.66;5037310;28;45281;-71
2022/02/05 13:34:05;;;;;;;;;1.25;0.00;;;;;11.55;51.20;102123.13;5043994;28;45403;-71
2022/02/05 13:41:46;;;;;;;;;0.50;0.50;;;;;11.69;50.60;102130.94;5040703;28;45510;-76
2022/02/05 13:44:19;;;;;;;;;0.00;0.00;;;;;11.71;50.07;102123.78;5040705;28;45387;-71
2022/02/05 13:47:07;;;;;;;;;0.00;0.00;;;;;11.73;49.93;102123.75;5039291;28;47215;-71
2022/02/05 13:49:33;;;;;;;;;0.75;0.75;;;;;11.74;50.20;102118.38;5040180;28;45568;-70
2022/02/05 13:52:07;;;;;;;;;0.00;0.00;;;;;11.71;49.13;102109.50;5035972;28;45511;-70
2022/02/05 13:54:36;;;;;;;;;0.50;0.00;;;;;11.77;49.58;102114.78;5040327;28;45390;-71
2022/02/05 13:57:02;;;;;;;;;0.00;0.00;;;;;11.77;49.19;102112.97;5008453;28;47293;-71
2022/02/05 13:59:28;;;;;;;;;0.25;0.25;;;;;11.70;49.29;102087.25;5005903;28;48870;-70
2022/02/05 14:01:54;;;;;;;;;1.00;1.00;;;;;11.81;49.64;102105.78;5017746;28;45285;-71
2022/02/05 14:04:23;;;;;;;;;0.00;0.00;;;;;11.83;49.78;102104.00;5019621;28;45314;-71
2022/02/05 14:06:59;;;;;;;;;0.50;0.50;;;;;11.81;49.56;102096.00;5009138;28;47173;-71
2022/02/05 14:09:35;;;;;;;;;0.25;0.25;;;;;11.91;49.47;102101.16;5018560;28;45413;-71
2022/02/05 14:12:32;;;;;;;;;2.00;0.50;;;;;11.91;49.17;102104.78;5015631;28;45426;-71
2022/02/05 14:15:02;;;;;;;;;2.00;0.00;;;;;11.93;49.00;102099.38;5008246;28;45392;-71